Airfield :
LOGIN :

Register | Disclaimer

   EN    FR    IT 

 










Legend :    VFR   Marginal VFR   IFR   Intensive IFR   Very Intensive IFR
Visi :
Ceiling :
>= 8 km
>= 3000ft
5 to 8 km
1000 to 3000 ft
1500m to 5 km
500 to 1000 ft
800 to 1500m
200 to 500 ft
< 800m
< 200 ft
Symbols :   Thunderstorms  Fog  Heavy snow  Heavy precipitations  Wind > 20 kt
SIGMETs :     Misc.  Thunderstorms  Icing  Turbulence  Mountain Waves  Volcanic Ashes







- Airport Elevation : 1090 ft
- IATA code : CFE
- Download approach charts


LFLC - Clermont-Ferrand Auvergne

CURRENT METAR :
  • 171700Z AUTO VRB03KT CAVOK 30/14 Q1019 NOSIG

EXPIRED METARs :
  • 171630Z AUTO 31007KT 270V350 9999 FEW066 29/13 Q1019 NOSIG
  • 171600Z AUTO 33004KT 270V040 9999 FEW066 30/13 Q1019 NOSIG
  • 171530Z AUTO 08005KT 020V110 CAVOK 30/13 Q1019 NOSIG
  • 171500Z AUTO 04005KT 340V100 CAVOK 30/13 Q1019 NOSIG
  • 171430Z AUTO 05004KT 340V120 CAVOK 29/13 Q1019 NOSIG

TAF TAF LFLC
Valid from the 17 at 15:00 until the 18 at 15:00 UTC


171400Z 1715/1815 09004KT CAVOK
ATIS : +33 4 73 62 74 38
No reported NOTAMs for that airfield.



MET'MAP, your aeronautical weather chart ! - Copyright ORBIFLY December 2007 - Disclaimer

ORBIFLY MET'MAP TEAM :

Programming & Development : Alexandra Zaïnal
Concept & Development : Baudouin d'Aumeries
Co-Development & Prog : Marc-Olivier Méhu
Technical & hardware support : Manuel Goepfert

Contact : metmap@orbifly.com




SOURCES & CREDITS :

   NOAA